createdAt,value
2022-12-15T00:02:36.890Z,8.24
2022-12-15T00:05:24.327Z,8.19
2022-12-15T00:08:09.654Z,8.16
2022-12-15T00:10:55.403Z,8.21
2022-12-15T00:13:41.406Z,8.17
2022-12-15T00:16:27.334Z,8.18
2022-12-15T00:19:12.814Z,8.08
2022-12-15T00:21:59.682Z,8.08
2022-12-15T00:24:45.133Z,8.01
2022-12-15T00:27:35.273Z,7.99
2022-12-15T00:30:21.144Z,7.96
2022-12-15T00:33:06.797Z,8.04
2022-12-15T00:35:52.214Z,7.90
2022-12-15T00:38:39.549Z,7.81
2022-12-15T00:41:07.666Z,7.84
2022-12-15T00:43:37.245Z,7.81
2022-12-15T00:46:23.158Z,7.81
2022-12-15T00:48:51.442Z,7.89
2022-12-15T00:51:19.294Z,7.87
2022-12-15T00:54:06.566Z,7.88
2022-12-15T00:56:51.962Z,7.89
2022-12-15T00:59:37.359Z,7.83
2022-12-15T01:02:22.857Z,7.82
2022-12-15T01:05:08.546Z,7.88
2022-12-15T01:07:54.054Z,7.94
2022-12-15T01:10:41.107Z,7.99
2022-12-15T01:13:31.504Z,8.09
2022-12-15T01:16:17.454Z,8.15
2022-12-15T01:19:03.074Z,8.23
2022-12-15T01:21:33.182Z,8.32
2022-12-15T01:24:01.272Z,8.31
2022-12-15T01:26:30.964Z,8.26
2022-12-15T01:28:59.072Z,8.34
2022-12-15T01:31:27.318Z,8.42
2022-12-15T01:33:55.767Z,8.41
2022-12-15T01:36:23.888Z,8.46
2022-12-15T01:38:54.386Z,8.57
2022-12-15T01:41:22.571Z,8.52
2022-12-15T01:43:52.064Z,8.62
2022-12-15T01:46:22.292Z,8.54
2022-12-15T01:48:55.952Z,8.54
2022-12-15T01:51:29.876Z,8.49
2022-12-15T01:54:04.646Z,8.45
2022-12-15T01:56:37.873Z,8.47
2022-12-15T01:59:10.943Z,8.48
2022-12-15T02:01:39.579Z,8.52
2022-12-15T02:04:09.116Z,8.50
2022-12-15T02:06:37.662Z,8.50
2022-12-15T02:09:06.437Z,8.47
2022-12-15T02:11:50.973Z,8.50
2022-12-15T02:14:35.798Z,8.60
2022-12-15T02:17:13.882Z,8.46
2022-12-15T02:20:27.342Z,8.45
2022-12-15T02:23:40.894Z,8.41
2022-12-15T02:26:29.882Z,8.45
2022-12-15T02:29:13.319Z,8.39
2022-12-15T02:31:54.480Z,8.34
2022-12-15T02:34:30.595Z,8.36
2022-12-15T02:37:02.812Z,8.36
2022-12-15T02:39:31.107Z,8.42
2022-12-15T02:41:59.243Z,8.45
2022-12-15T02:44:33.774Z,8.36
2022-12-15T02:47:22.426Z,8.42
2022-12-15T02:50:08.777Z,8.46
2022-12-15T02:52:51.692Z,8.42
2022-12-15T02:55:29.211Z,8.50
2022-12-15T02:58:04.090Z,8.45
2022-12-15T03:00:38.914Z,8.49
2022-12-15T03:03:09.578Z,8.48
2022-12-15T03:05:38.390Z,8.50
2022-12-15T03:08:06.541Z,8.51
2022-12-15T03:10:34.653Z,8.50
2022-12-15T03:13:02.776Z,8.54
2022-12-15T03:15:35.351Z,8.53
2022-12-15T03:18:04.018Z,8.45
2022-12-15T03:20:33.480Z,8.52
2022-12-15T03:23:01.986Z,8.48
2022-12-15T03:25:30.514Z,8.47
2022-12-15T03:27:58.625Z,8.51
2022-12-15T03:30:26.807Z,8.51
2022-12-15T03:32:54.938Z,8.39
2022-12-15T03:35:23.146Z,8.37
2022-12-15T03:37:52.639Z,8.34
2022-12-15T03:40:20.835Z,8.31
2022-12-15T03:42:51.714Z,8.40
2022-12-15T03:45:23.683Z,8.30
2022-12-15T03:47:52.559Z,8.25
2022-12-15T03:50:22.982Z,8.26
2022-12-15T03:52:57.243Z,8.19
2022-12-15T03:55:25.881Z,8.22
2022-12-15T03:57:54.274Z,8.19
2022-12-15T04:00:23.342Z,8.17
2022-12-15T04:02:52.465Z,8.15
2022-12-15T04:05:23.297Z,8.22
2022-12-15T04:07:51.462Z,8.20
2022-12-15T04:10:21.033Z,8.21
2022-12-15T04:12:49.273Z,8.21
2022-12-15T04:15:17.517Z,8.25
2022-12-15T04:17:45.989Z,8.24
2022-12-15T04:20:14.068Z,8.25
2022-12-15T04:22:44.111Z,8.23
2022-12-15T04:25:32.987Z,8.25
2022-12-15T04:28:20.050Z,8.18
2022-12-15T04:31:10.484Z,8.23
2022-12-15T04:33:58.008Z,8.16
2022-12-15T04:36:43.686Z,8.23
2022-12-15T04:39:29.378Z,8.13
2022-12-15T04:42:17.907Z,8.14
2022-12-15T04:45:05.290Z,8.20
2022-12-15T04:47:50.842Z,8.20
2022-12-15T04:50:36.418Z,8.18
2022-12-15T04:53:29.279Z,8.17
2022-12-15T04:56:18.694Z,8.17
2022-12-15T04:59:04.429Z,8.15
2022-12-15T05:01:51.773Z,8.10
2022-12-15T05:04:38.181Z,8.08
2022-12-15T05:07:23.611Z,8.06
2022-12-15T05:10:14.687Z,8.04
2022-12-15T05:13:00.951Z,8.04
2022-12-15T05:15:46.601Z,8.04
2022-12-15T05:18:33.738Z,8.02
2022-12-15T05:21:19.257Z,8.02
2022-12-15T05:24:04.771Z,8.08
2022-12-15T05:26:53.063Z,8.01
2022-12-15T05:29:38.834Z,8.13
2022-12-15T05:32:07.398Z,8.09
2022-12-15T05:34:37.965Z,8.10
2022-12-15T05:37:07.363Z,8.14
2022-12-15T05:39:35.869Z,8.10
2022-12-15T05:42:04.340Z,8.05
2022-12-15T05:44:32.506Z,8.00
2022-12-15T05:47:00.662Z,7.97
2022-12-15T05:49:28.837Z,7.96
2022-12-15T05:51:58.406Z,8.00
2022-12-15T05:54:26.812Z,8.01
2022-12-15T05:56:55.001Z,7.96
2022-12-15T05:59:23.321Z,8.01
2022-12-15T06:01:51.429Z,8.04
2022-12-15T06:04:19.689Z,7.99
2022-12-15T06:06:47.909Z,8.00
2022-12-15T06:09:17.363Z,7.95
2022-12-15T06:11:45.627Z,7.95
2022-12-15T06:14:13.871Z,8.02
2022-12-15T06:16:50.869Z,7.98
2022-12-15T06:19:20.246Z,7.96
2022-12-15T06:21:48.390Z,8.04
2022-12-15T06:24:17.965Z,7.96
2022-12-15T06:26:46.206Z,7.97
2022-12-15T06:29:17.815Z,7.96
2022-12-15T06:31:46.149Z,8.04
2022-12-15T06:34:16.224Z,7.95
2022-12-15T06:36:44.914Z,7.97
2022-12-15T06:39:15.445Z,7.99
2022-12-15T06:41:45.668Z,8.10
2022-12-15T06:44:15.276Z,8.19
2022-12-15T06:46:45.827Z,8.18
2022-12-15T06:49:14.518Z,8.20
2022-12-15T06:51:44.240Z,8.19
2022-12-15T06:54:12.656Z,8.16
2022-12-15T06:56:40.840Z,8.13
2022-12-15T06:59:13.486Z,8.19
2022-12-15T07:01:43.143Z,8.20
2022-12-15T07:04:12.184Z,8.17
2022-12-15T07:06:42.452Z,8.22
2022-12-15T07:09:16.178Z,8.15
2022-12-15T07:11:45.317Z,8.20
2022-12-15T07:14:14.938Z,8.22
2022-12-15T07:16:43.186Z,8.29
2022-12-15T07:19:13.018Z,8.39
2022-12-15T07:21:41.682Z,8.31
2022-12-15T07:24:11.835Z,8.38
2022-12-15T07:26:40.035Z,8.32
2022-12-15T07:29:08.277Z,8.39
2022-12-15T07:31:37.832Z,8.43
2022-12-15T07:34:05.982Z,8.31
2022-12-15T07:36:35.037Z,8.47
2022-12-15T07:39:04.932Z,8.52
2022-12-15T07:41:33.622Z,8.64
2022-12-15T07:44:02.540Z,8.65
2022-12-15T07:46:31.162Z,8.47
2022-12-15T07:49:01.009Z,8.38
2022-12-15T07:51:29.071Z,8.56
2022-12-15T07:53:57.595Z,8.60
2022-12-15T07:56:25.767Z,8.66
2022-12-15T07:58:54.198Z,8.66
2022-12-15T08:01:22.495Z,8.61
2022-12-15T08:03:51.015Z,8.59
2022-12-15T08:06:20.678Z,8.43
2022-12-15T08:08:51.225Z,8.61
2022-12-15T08:11:21.978Z,8.57
2022-12-15T08:14:10.511Z,8.55
2022-12-15T08:16:40.004Z,8.68
2022-12-15T08:19:11.870Z,8.79
2022-12-15T08:21:43.091Z,8.85
2022-12-15T08:24:11.963Z,8.89
2022-12-15T08:26:40.312Z,8.99
2022-12-15T08:29:50.266Z,9.03
2022-12-15T08:31:58.473Z,9.00
2022-12-15T08:34:26.662Z,9.22
2022-12-15T08:36:56.769Z,9.32
2022-12-15T08:39:24.977Z,9.22
2022-12-15T08:41:53.232Z,9.27
2022-12-15T08:44:21.338Z,9.29
2022-12-15T08:46:49.385Z,9.69
2022-12-15T08:49:21.847Z,9.63
2022-12-15T08:51:51.262Z,9.56
2022-12-15T08:54:21.745Z,9.60
2022-12-15T08:56:50.027Z,9.86
2022-12-15T08:59:19.382Z,9.88
2022-12-15T09:01:47.913Z,10.12
2022-12-15T09:04:16.808Z,10.04
2022-12-15T09:06:50.892Z,10.24
2022-12-15T09:09:21.103Z,10.29
2022-12-15T09:11:49.420Z,10.17
2022-12-15T09:14:22.716Z,10.28
2022-12-15T09:16:55.527Z,10.20
2022-12-15T09:19:23.735Z,10.13
2022-12-15T09:21:52.073Z,10.06
2022-12-15T09:24:32.141Z,10.06
2022-12-15T09:27:03.391Z,10.08
2022-12-15T09:29:31.603Z,10.18
2022-12-15T09:32:00.576Z,9.98
2022-12-15T09:34:28.739Z,10.03
2022-12-15T09:36:56.820Z,9.72
2022-12-15T09:39:26.417Z,9.74
2022-12-15T09:41:58.757Z,9.91
2022-12-15T09:44:28.926Z,9.89
2022-12-15T09:47:10.022Z,9.87
2022-12-15T09:49:54.210Z,9.85
2022-12-15T09:52:26.671Z,9.58
2022-12-15T09:54:56.976Z,9.90
2022-12-15T09:57:37.410Z,10.03
2022-12-15T10:00:22.008Z,9.99
2022-12-15T10:03:31.162Z,10.00
2022-12-15T10:06:16.737Z,9.72
2022-12-15T10:08:50.430Z,9.74
2022-12-15T10:11:27.861Z,9.74
2022-12-15T10:14:01.085Z,9.82
2022-12-15T10:16:36.167Z,9.89
2022-12-15T10:19:10.363Z,9.79
2022-12-15T10:21:38.676Z,9.83
2022-12-15T10:24:37.426Z,9.82
2022-12-15T10:27:28.347Z,9.90
2022-12-15T10:30:02.590Z,10.02
2022-12-15T10:32:42.651Z,10.20
2022-12-15T10:35:17.304Z,10.03
2022-12-15T10:37:45.455Z,10.00
2022-12-15T10:40:19.091Z,9.86
2022-12-15T10:42:50.912Z,9.91
2022-12-15T10:45:36.864Z,9.80
2022-12-15T10:48:06.933Z,9.71
2022-12-15T10:50:35.795Z,9.63
2022-12-15T10:53:09.715Z,9.55
2022-12-15T10:55:40.097Z,9.48
2022-12-15T10:58:18.769Z,9.44
2022-12-15T11:03:39.748Z,9.39
2022-12-15T11:06:17.131Z,9.54
2022-12-15T11:08:47.516Z,9.63
2022-12-15T11:11:50.342Z,9.69
2022-12-15T11:14:24.312Z,9.66
2022-12-15T11:16:56.556Z,9.64
2022-12-15T11:19:37.185Z,9.65
2022-12-15T11:22:11.336Z,9.71
2022-12-15T11:24:45.699Z,9.65
2022-12-15T11:27:25.734Z,9.73
2022-12-15T11:30:02.928Z,9.81
2022-12-15T11:32:35.475Z,9.65
2022-12-15T11:35:04.181Z,9.60
2022-12-15T11:37:40.439Z,9.49
2022-12-15T11:40:21.506Z,9.55
2022-12-15T11:43:02.278Z,9.62
2022-12-15T11:45:41.553Z,9.61
2022-12-15T11:48:17.377Z,9.52
2022-12-15T11:50:55.050Z,9.42
2022-12-15T11:53:52.167Z,9.40
2022-12-15T11:56:30.442Z,9.42
2022-12-15T11:59:19.766Z,9.36
2022-12-15T12:02:17.529Z,9.31
2022-12-15T12:05:01.770Z,9.33
2022-12-15T12:07:42.302Z,9.31
2022-12-15T12:10:26.156Z,9.33
2022-12-15T12:13:03.062Z,9.25
2022-12-15T12:15:36.739Z,9.38
2022-12-15T12:18:14.265Z,9.40
2022-12-15T12:20:48.633Z,9.43
2022-12-15T12:23:23.719Z,9.38
2022-12-15T12:26:03.466Z,9.43
2022-12-15T12:28:41.292Z,9.55
2022-12-15T12:31:22.301Z,9.49
2022-12-15T12:34:00.047Z,9.50
2022-12-15T12:36:28.156Z,9.50
2022-12-15T12:38:59.579Z,9.52
2022-12-15T12:41:35.781Z,9.55
2022-12-15T12:44:13.615Z,9.43
2022-12-15T12:46:45.859Z,9.38
2022-12-15T12:49:28.367Z,9.32
2022-12-15T12:51:59.670Z,9.31
2022-12-15T12:54:50.231Z,9.37
2022-12-15T12:57:40.028Z,9.31
2022-12-15T13:00:20.903Z,9.27
2022-12-15T13:02:57.108Z,9.31
2022-12-15T13:05:34.774Z,9.28
2022-12-15T13:08:41.474Z,9.03
2022-12-15T13:11:56.585Z,8.75
2022-12-15T13:14:48.351Z,8.41
2022-12-15T13:17:28.596Z,8.40
2022-12-15T13:20:23.677Z,8.46
2022-12-15T13:22:54.502Z,8.41
2022-12-15T13:25:36.989Z,8.38
2022-12-15T13:28:31.468Z,8.29
2022-12-15T13:31:36.909Z,8.20
2022-12-15T13:34:15.205Z,8.10
2022-12-15T13:37:01.827Z,8.17
2022-12-15T13:39:59.409Z,8.22
2022-12-15T13:42:53.160Z,8.23
2022-12-15T13:45:50.224Z,8.16
2022-12-15T13:48:38.565Z,8.18
2022-12-15T13:51:30.623Z,8.05
2022-12-15T13:54:03.236Z,8.09
2022-12-15T13:56:56.104Z,8.03
2022-12-15T13:59:30.943Z,7.97
2022-12-15T14:01:59.135Z,7.89
2022-12-15T14:04:27.882Z,7.62
2022-12-15T14:06:58.871Z,7.51
2022-12-15T14:09:32.287Z,7.46
2022-12-15T14:12:03.668Z,7.35
2022-12-15T14:14:35.078Z,7.18
2022-12-15T14:17:07.247Z,7.13
2022-12-15T14:19:40.183Z,7.10
2022-12-15T14:22:29.667Z,7.06
2022-12-15T14:25:03.737Z,6.94
2022-12-15T14:27:35.343Z,6.97
2022-12-15T14:30:28.674Z,6.96
2022-12-15T14:33:01.114Z,6.90
2022-12-15T14:35:32.596Z,6.84
2022-12-15T14:38:04.599Z,6.81
2022-12-15T14:40:36.379Z,6.68
2022-12-15T14:43:08.353Z,6.66
2022-12-15T14:45:36.493Z,6.65
2022-12-15T14:48:40.101Z,6.70
2022-12-15T14:51:02.061Z,6.56
2022-12-15T14:53:34.980Z,6.50
2022-12-15T14:56:29.786Z,6.47
2022-12-15T14:59:03.917Z,6.46
2022-12-15T15:01:40.244Z,6.39
2022-12-15T15:03:11.588Z,9.40
2022-12-15T15:04:24.782Z,6.38
2022-12-15T15:06:56.321Z,6.38
2022-12-15T15:09:27.170Z,6.28
2022-12-15T15:11:58.156Z,6.14
2022-12-15T15:14:30.664Z,6.02
2022-12-15T15:17:05.488Z,6.01
2022-12-15T15:19:39.330Z,5.95
2022-12-15T15:22:24.502Z,5.90
2022-12-15T15:24:53.086Z,5.85
2022-12-15T15:27:34.367Z,5.88
2022-12-15T15:30:17.745Z,5.79
2022-12-15T15:32:54.729Z,5.70
2022-12-15T15:35:24.607Z,5.75
2022-12-15T15:37:54.508Z,5.61
2022-12-15T15:40:22.684Z,5.52
2022-12-15T15:42:50.796Z,5.52
2022-12-15T15:45:20.451Z,5.52
2022-12-15T15:47:51.337Z,5.45
2022-12-15T15:50:28.810Z,5.38
2022-12-15T15:52:57.408Z,5.36
2022-12-15T15:55:29.500Z,5.34
2022-12-15T15:57:59.470Z,5.34
2022-12-15T16:00:29.014Z,5.28
2022-12-15T16:02:57.264Z,5.31
2022-12-15T16:05:25.548Z,5.34
2022-12-15T16:07:53.690Z,5.27
2022-12-15T16:10:22.279Z,5.34
2022-12-15T16:12:54.041Z,5.29
2022-12-15T16:15:26.026Z,5.34
2022-12-15T16:17:56.454Z,5.45
2022-12-15T16:20:29.201Z,5.51
2022-12-15T16:23:02.405Z,5.49
2022-12-15T16:25:42.427Z,5.32
2022-12-15T16:28:14.336Z,5.24
2022-12-15T16:30:43.263Z,5.14
2022-12-15T16:33:13.514Z,5.09
2022-12-15T16:35:43.318Z,5.00
2022-12-15T16:38:18.274Z,4.94
2022-12-15T16:40:46.714Z,4.91
2022-12-15T16:43:17.432Z,4.84
2022-12-15T16:45:47.423Z,4.82
2022-12-15T16:48:18.083Z,4.74
2022-12-15T16:50:51.916Z,4.64
2022-12-15T16:53:23.261Z,4.63
2022-12-15T16:55:55.136Z,4.74
2022-12-15T16:58:25.237Z,4.61
2022-12-15T17:00:53.938Z,4.51
2022-12-15T17:03:26.258Z,4.34
2022-12-15T17:05:56.896Z,4.32
2022-12-15T17:08:27.783Z,4.30
2022-12-15T17:10:56.272Z,4.23
2022-12-15T17:13:36.625Z,4.18
2022-12-15T17:16:08.494Z,4.16
2022-12-15T17:18:38.166Z,4.13
2022-12-15T17:21:16.526Z,4.10
2022-12-15T17:23:45.934Z,4.18
2022-12-15T17:26:29.028Z,4.25
2022-12-15T17:29:01.662Z,4.28
2022-12-15T17:31:35.205Z,4.24
2022-12-15T17:34:21.186Z,4.15
2022-12-15T17:36:49.436Z,4.08
2022-12-15T17:39:20.543Z,4.21
2022-12-15T17:42:04.601Z,4.15
2022-12-15T17:44:37.939Z,3.88
2022-12-15T17:47:08.955Z,4.00
2022-12-15T17:49:39.447Z,4.00
2022-12-15T17:52:17.631Z,4.11
2022-12-15T17:54:45.969Z,4.19
2022-12-15T17:57:14.201Z,4.31
2022-12-15T17:59:42.362Z,4.20
2022-12-15T18:02:13.364Z,4.28
2022-12-15T18:04:44.139Z,4.10
2022-12-15T18:07:24.272Z,3.92
2022-12-15T18:09:55.939Z,3.66
2022-12-15T18:12:27.268Z,3.70
2022-12-15T18:14:57.015Z,3.50
2022-12-15T18:17:25.298Z,3.45
2022-12-15T18:19:54.991Z,3.35
2022-12-15T18:22:25.260Z,3.34
2022-12-15T18:24:56.207Z,3.64
2022-12-15T18:27:26.371Z,3.97
2022-12-15T18:29:54.946Z,4.18
2022-12-15T18:32:25.907Z,4.13
2022-12-15T18:34:55.975Z,3.91
2022-12-15T18:37:25.832Z,3.80
2022-12-15T18:39:57.120Z,3.82
2022-12-15T18:42:29.065Z,3.89
2022-12-15T18:44:58.806Z,3.92
2022-12-15T18:47:27.786Z,3.84
2022-12-15T18:49:57.430Z,3.84
2022-12-15T18:52:31.539Z,3.91
2022-12-15T18:55:02.953Z,3.90
2022-12-15T18:57:33.273Z,3.84
2022-12-15T19:00:04.458Z,3.75
2022-12-15T19:02:33.173Z,3.86
2022-12-15T19:05:02.882Z,4.00
2022-12-15T19:07:31.500Z,3.99
2022-12-15T19:10:00.971Z,4.07
2022-12-15T19:12:29.122Z,4.11
2022-12-15T19:14:57.339Z,4.05
2022-12-15T19:17:43.356Z,4.09
2022-12-15T19:20:35.929Z,4.15
2022-12-15T19:23:04.548Z,4.17
2022-12-15T19:25:33.163Z,4.01
2022-12-15T19:28:02.256Z,4.17
2022-12-15T19:30:38.646Z,4.08
2022-12-15T19:33:10.226Z,3.82
2022-12-15T19:35:41.789Z,3.67
2022-12-15T19:38:20.558Z,3.72
2022-12-15T19:40:49.309Z,3.89
2022-12-15T19:43:18.073Z,4.03
2022-12-15T19:45:46.337Z,4.07
2022-12-15T19:48:18.715Z,4.04
2022-12-15T19:50:52.188Z,4.03
2022-12-15T19:53:26.392Z,3.99
2022-12-15T19:55:56.991Z,4.04
2022-12-15T19:58:29.190Z,4.06
2022-12-15T20:00:59.552Z,4.14
2022-12-15T20:03:28.938Z,4.21
2022-12-15T20:06:00.270Z,4.32
2022-12-15T20:08:33.995Z,4.24
2022-12-15T20:11:02.303Z,4.17
2022-12-15T20:13:30.940Z,4.28
2022-12-15T20:15:59.258Z,4.22
2022-12-15T20:18:27.340Z,4.12
2022-12-15T20:20:55.767Z,3.99
2022-12-15T20:23:27.443Z,3.67
2022-12-15T20:25:57.146Z,3.54
2022-12-15T20:28:27.069Z,3.56
2022-12-15T20:30:56.169Z,3.56
2022-12-15T20:33:24.880Z,3.53
2022-12-15T20:35:53.434Z,3.48
2022-12-15T20:38:29.682Z,3.36
2022-12-15T20:40:58.335Z,3.27
2022-12-15T20:43:31.139Z,3.37
2022-12-15T20:46:04.229Z,3.50
2022-12-15T20:48:34.847Z,3.72
2022-12-15T20:51:07.431Z,3.59
2022-12-15T20:53:39.141Z,3.61
2022-12-15T20:56:08.161Z,3.84
2022-12-15T20:58:39.308Z,4.34
2022-12-15T21:01:17.917Z,4.41
2022-12-15T21:03:46.575Z,4.35
2022-12-15T21:06:14.789Z,4.28
2022-12-15T21:08:44.856Z,4.48
2022-12-15T21:11:18.510Z,4.76
2022-12-15T21:13:48.471Z,4.81
2022-12-15T21:16:19.657Z,4.74
2022-12-15T21:21:38.758Z,5.07
2022-12-15T21:24:19.177Z,5.25
2022-12-15T21:26:47.842Z,5.15
2022-12-15T21:29:17.901Z,5.00
2022-12-15T21:31:46.845Z,4.90
2022-12-15T21:34:15.419Z,4.95
2022-12-15T21:36:47.433Z,5.07
2022-12-15T21:39:24.131Z,4.99
2022-12-15T21:41:52.524Z,4.83
2022-12-15T21:44:23.364Z,4.72
2022-12-15T21:46:51.749Z,4.65
2022-12-15T21:49:18.919Z,4.81
2022-12-15T21:51:49.722Z,4.69
2022-12-15T21:54:28.844Z,4.63
2022-12-15T21:56:59.432Z,4.56
2022-12-15T21:59:30.952Z,4.43
2022-12-15T22:02:01.232Z,4.30
2022-12-15T22:04:31.810Z,4.17
2022-12-15T22:06:59.999Z,4.04
2022-12-15T22:09:29.826Z,3.93
2022-12-15T22:11:58.273Z,3.85
2022-12-15T22:14:28.264Z,3.85
2022-12-15T22:16:56.691Z,3.82
2022-12-15T22:19:25.238Z,3.78
2022-12-15T22:21:53.407Z,3.75
2022-12-15T22:24:21.550Z,3.71
2022-12-15T22:26:51.646Z,3.78
2022-12-15T22:29:22.356Z,3.83
2022-12-15T22:31:51.876Z,3.89
2022-12-15T22:34:22.034Z,3.84
2022-12-15T22:36:50.706Z,3.70
2022-12-15T22:39:20.634Z,3.67
2022-12-15T22:41:52.342Z,3.71
2022-12-15T22:44:27.328Z,3.82
2022-12-15T22:46:57.945Z,3.83
2022-12-15T22:49:37.628Z,3.89
2022-12-15T22:52:16.665Z,3.82
2022-12-15T22:54:45.916Z,3.84
2022-12-15T22:57:21.856Z,3.78
2022-12-15T22:59:55.421Z,3.87
2022-12-15T23:02:23.577Z,3.86
2022-12-15T23:04:51.673Z,3.83
2022-12-15T23:07:20.138Z,3.85
2022-12-15T23:09:48.327Z,4.23
2022-12-15T23:12:17.005Z,4.15
2022-12-15T23:15:02.765Z,4.03
2022-12-15T23:17:30.856Z,3.93
2022-12-15T23:19:59.005Z,3.86
2022-12-15T23:22:27.090Z,3.96
2022-12-15T23:24:55.796Z,3.99
2022-12-15T23:27:25.489Z,3.98
2022-12-15T23:29:53.638Z,3.98
2022-12-15T23:32:23.089Z,3.96
2022-12-15T23:34:51.588Z,3.98
2022-12-15T23:37:19.746Z,3.97
2022-12-15T23:39:47.869Z,4.07
2022-12-15T23:42:16.009Z,4.27
2022-12-15T23:44:48.203Z,4.46
2022-12-15T23:47:16.395Z,4.47
2022-12-15T23:49:44.514Z,4.36
2022-12-15T23:52:12.768Z,4.27
2022-12-15T23:54:40.946Z,4.46
2022-12-15T23:57:09.051Z,4.36
2022-12-15T23:59:37.200Z,4.42
